sensor_id;sensor_type;location;lat;lon;timestamp;pressure;altitude;pressure_sealevel;temperature;humidity
4149;BME280;2088;51.032;7.082;2022-08-26T00:01:42;47843.19;;;-142.28;62.58
4149;BME280;2088;51.032;7.082;2022-08-26T00:04:09;47841.25;;;-142.28;62.22
4149;BME280;2088;51.032;7.082;2022-08-26T00:06:36;47850.94;;;-142.28;62.82
4149;BME280;2088;51.032;7.082;2022-08-26T00:09:03;47816.09;;;-142.28;62.93
4149;BME280;2088;51.032;7.082;2022-08-26T00:11:32;47845.13;;;-142.28;63.39
4149;BME280;2088;51.032;7.082;2022-08-26T00:13:58;47816.09;;;-142.28;63.88
4149;BME280;2088;51.032;7.082;2022-08-26T00:16:26;47814.16;;;-142.28;64.18
4149;BME280;2088;51.032;7.082;2022-08-26T00:18:53;47831.59;;;-142.28;64.48
4149;BME280;2088;51.032;7.082;2022-08-26T00:21:20;47837.38;;;-142.28;63.71
4149;BME280;2088;51.032;7.082;2022-08-26T00:23:47;47829.66;;;-142.28;64.04
4149;BME280;2088;51.032;7.082;2022-08-26T00:26:13;47819.97;;;-142.28;64.20
4149;BME280;2088;51.032;7.082;2022-08-26T00:28:41;47823.84;;;-142.28;64.64
4149;BME280;2088;51.032;7.082;2022-08-26T00:31:08;47823.84;;;-142.28;64.88
4149;BME280;2088;51.032;7.082;2022-08-26T00:33:34;47804.50;;;-142.28;64.72
4149;BME280;2088;51.032;7.082;2022-08-26T00:36:02;47835.47;;;-142.28;64.88
4149;BME280;2088;51.032;7.082;2022-08-26T00:38:29;47850.94;;;-142.28;65.40
4149;BME280;2088;51.032;7.082;2022-08-26T00:40:56;47849.00;;;-142.28;65.56
4149;BME280;2088;51.032;7.082;2022-08-26T00:43:24;47850.94;;;-142.28;65.88
4149;BME280;2088;51.032;7.082;2022-08-26T00:46:00;47827.72;;;-142.28;66.53
4149;BME280;2088;51.032;7.082;2022-08-26T00:48:31;47839.31;;;-142.28;66.72
4149;BME280;2088;51.032;7.082;2022-08-26T00:51:01;47829.66;;;-142.28;66.38
4149;BME280;2088;51.032;7.082;2022-08-26T00:53:32;47837.38;;;-142.28;64.61
4149;BME280;2088;51.032;7.082;2022-08-26T00:56:02;47856.75;;;-142.28;64.63
4149;BME280;2088;51.032;7.082;2022-08-26T00:58:32;47841.25;;;-142.28;63.80
4149;BME280;2088;51.032;7.082;2022-08-26T01:01:02;47827.72;;;-142.28;62.92
4149;BME280;2088;51.032;7.082;2022-08-26T01:03:31;47823.84;;;-142.28;62.51
4149;BME280;2088;51.032;7.082;2022-08-26T01:06:00;47792.88;;;-142.28;63.04
4149;BME280;2088;51.032;7.082;2022-08-26T01:08:28;47847.06;;;-142.28;63.30
4149;BME280;2088;51.032;7.082;2022-08-26T01:10:55;47835.47;;;-142.28;64.19
4149;BME280;2088;51.032;7.082;2022-08-26T01:13:23;47852.88;;;-142.28;65.14
4149;BME280;2088;51.032;7.082;2022-08-26T01:15:52;47835.47;;;-142.28;65.36
4149;BME280;2088;51.032;7.082;2022-08-26T01:18:21;47854.81;;;-142.28;65.44
4149;BME280;2088;51.032;7.082;2022-08-26T01:20:55;47860.63;;;-142.28;66.30
4149;BME280;2088;51.032;7.082;2022-08-26T01:23:28;47854.81;;;-142.28;67.72
4149;BME280;2088;51.032;7.082;2022-08-26T01:26:01;47843.19;;;-142.28;68.32
4149;BME280;2088;51.032;7.082;2022-08-26T01:28:30;47835.47;;;-142.28;71.09
4149;BME280;2088;51.032;7.082;2022-08-26T01:30:59;47852.88;;;-142.28;72.29
4149;BME280;2088;51.032;7.082;2022-08-26T01:33:33;47837.38;;;-142.28;74.24
4149;BME280;2088;51.032;7.082;2022-08-26T01:36:01;47856.75;;;-142.28;74.72
4149;BME280;2088;51.032;7.082;2022-08-26T01:38:29;47835.47;;;-142.28;75.58
4149;BME280;2088;51.032;7.082;2022-08-26T01:40:56;47847.06;;;-142.28;76.48
4149;BME280;2088;51.032;7.082;2022-08-26T01:43:24;47843.19;;;-142.28;77.20
4149;BME280;2088;51.032;7.082;2022-08-26T01:45:52;47856.75;;;-142.28;78.58
4149;BME280;2088;51.032;7.082;2022-08-26T01:48:23;47858.69;;;-142.28;79.40
4149;BME280;2088;51.032;7.082;2022-08-26T01:50:51;47835.47;;;-142.28;80.31
4149;BME280;2088;51.032;7.082;2022-08-26T01:53:19;47850.94;;;-142.28;80.77
4149;BME280;2088;51.032;7.082;2022-08-26T01:55:51;47845.13;;;-142.28;81.79
4149;BME280;2088;51.032;7.082;2022-08-26T01:58:22;47839.31;;;-142.28;81.95
4149;BME280;2088;51.032;7.082;2022-08-26T02:00:50;47854.81;;;-142.28;83.09
4149;BME280;2088;51.032;7.082;2022-08-26T02:03:17;47858.69;;;-142.28;83.47
4149;BME280;2088;51.032;7.082;2022-08-26T02:05:48;47862.53;;;-142.28;84.85
4149;BME280;2088;51.032;7.082;2022-08-26T02:08:18;47839.31;;;-142.28;84.83
4149;BME280;2088;51.032;7.082;2022-08-26T02:10:45;47864.47;;;-142.28;85.85
4149;BME280;2088;51.032;7.082;2022-08-26T02:13:13;47850.94;;;-142.28;85.88
4149;BME280;2088;51.032;7.082;2022-08-26T02:15:40;47849.00;;;-142.28;86.88
4149;BME280;2088;51.032;7.082;2022-08-26T02:18:09;47852.88;;;-142.28;87.03
4149;BME280;2088;51.032;7.082;2022-08-26T02:20:36;47843.19;;;-142.28;87.88
4149;BME280;2088;51.032;7.082;2022-08-26T02:23:03;47833.53;;;-142.28;88.64
4149;BME280;2088;51.032;7.082;2022-08-26T02:25:32;47878.03;;;-142.28;88.90
4149;BME280;2088;51.032;7.082;2022-08-26T02:27:59;47839.31;;;-142.28;88.93
4149;BME280;2088;51.032;7.082;2022-08-26T02:30:29;47868.34;;;-142.28;89.34
4149;BME280;2088;51.032;7.082;2022-08-26T02:32:57;47868.34;;;-142.28;89.41
4149;BME280;2088;51.032;7.082;2022-08-26T02:35:25;47850.94;;;-142.28;90.53
4149;BME280;2088;51.032;7.082;2022-08-26T02:37:52;47864.47;;;-142.28;91.71
4149;BME280;2088;51.032;7.082;2022-08-26T02:40:22;47872.22;;;-142.28;92.96
4149;BME280;2088;51.032;7.082;2022-08-26T02:42:48;47864.47;;;-142.28;94.18
4149;BME280;2088;51.032;7.082;2022-08-26T02:45:15;47862.53;;;-142.28;95.31
4149;BME280;2088;51.032;7.082;2022-08-26T02:47:44;47876.09;;;-142.28;96.24
4149;BME280;2088;51.032;7.082;2022-08-26T02:50:10;47897.38;;;-142.28;97.45
4149;BME280;2088;51.032;7.082;2022-08-26T02:52:37;47891.56;;;-142.28;97.95
4149;BME280;2088;51.032;7.082;2022-08-26T02:55:04;47874.16;;;-142.28;97.84
4149;BME280;2088;51.032;7.082;2022-08-26T02:57:31;47889.63;;;-142.28;98.88
4149;BME280;2088;51.032;7.082;2022-08-26T02:59:58;47891.56;;;-142.28;99.32
4149;BME280;2088;51.032;7.082;2022-08-26T03:02:26;47905.13;;;-142.28;99.21
4149;BME280;2088;51.032;7.082;2022-08-26T03:04:53;47912.84;;;-142.28;98.95
4149;BME280;2088;51.032;7.082;2022-08-26T03:07:20;47903.19;;;-142.28;99.43
4149;BME280;2088;51.032;7.082;2022-08-26T03:09:47;47920.59;;;-142.28;100.00
4149;BME280;2088;51.032;7.082;2022-08-26T03:12:13;47914.78;;;-142.28;100.00
4149;BME280;2088;51.032;7.082;2022-08-26T03:14:40;47916.72;;;-142.28;100.00
4149;BME280;2088;51.032;7.082;2022-08-26T03:17:06;47930.28;;;-142.28;100.00
4149;BME280;2088;51.032;7.082;2022-08-26T03:19:33;47920.59;;;-142.28;100.00
4149;BME280;2088;51.032;7.082;2022-08-26T03:22:00;47930.28;;;-142.28;100.00
4149;BME280;2088;51.032;7.082;2022-08-26T03:24:29;47943.81;;;-142.28;100.00
4149;BME280;2088;51.032;7.082;2022-08-26T03:26:55;47961.22;;;-142.28;100.00
4149;BME280;2088;51.032;7.082;2022-08-26T03:29:22;47936.09;;;-142.28;100.00
4149;BME280;2088;51.032;7.082;2022-08-26T03:32:06;47980.59;;;-142.28;100.00
4149;BME280;2088;51.032;7.082;2022-08-26T03:34:33;47963.16;;;-142.28;100.00
4149;BME280;2088;51.032;7.082;2022-08-26T03:37:00;47957.38;;;-142.28;100.00
4149;BME280;2088;51.032;7.082;2022-08-26T03:39:27;47978.66;;;-142.28;100.00
4149;BME280;2088;51.032;7.082;2022-08-26T03:41:54;47974.78;;;-142.28;100.00
4149;BME280;2088;51.032;7.082;2022-08-26T03:44:21;47955.44;;;-142.28;100.00
4149;BME280;2088;51.032;7.082;2022-08-26T03:46:48;47963.16;;;-142.28;100.00
4149;BME280;2088;51.032;7.082;2022-08-26T03:49:14;47970.91;;;-142.28;100.00
4149;BME280;2088;51.032;7.082;2022-08-26T03:51:41;47967.03;;;-142.28;100.00
4149;BME280;2088;51.032;7.082;2022-08-26T03:54:09;48011.56;;;-142.28;100.00
4149;BME280;2088;51.032;7.082;2022-08-26T03:56:36;48003.81;;;-142.28;100.00
4149;BME280;2088;51.032;7.082;2022-08-26T03:59:03;47986.41;;;-142.28;100.00
4149;BME280;2088;51.032;7.082;2022-08-26T04:01:30;47998.00;;;-142.28;99.58
4149;BME280;2088;51.032;7.082;2022-08-26T04:03:56;47978.66;;;-142.28;98.77
4149;BME280;2088;51.032;7.082;2022-08-26T04:06:23;47984.47;;;-142.28;99.64
4149;BME280;2088;51.032;7.082;2022-08-26T04:08:50;47967.03;;;-142.28;100.00
4149;BME280;2088;51.032;7.082;2022-08-26T04:11:20;47994.13;;;-142.28;100.00
4149;BME280;2088;51.032;7.082;2022-08-26T04:13:47;47970.91;;;-142.28;99.66
4149;BME280;2088;51.032;7.082;2022-08-26T04:16:15;47984.47;;;-142.28;99.33
4149;BME280;2088;51.032;7.082;2022-08-26T04:18:43;47970.91;;;-142.28;98.97
4149;BME280;2088;51.032;7.082;2022-08-26T04:21:09;47994.13;;;-142.28;99.83
4149;BME280;2088;51.032;7.082;2022-08-26T04:23:37;47988.31;;;-142.28;99.75
4149;BME280;2088;51.032;7.082;2022-08-26T04:26:04;47982.53;;;-142.28;98.13
4149;BME280;2088;51.032;7.082;2022-08-26T04:28:32;47959.31;;;-142.28;98.56
4149;BME280;2088;51.032;7.082;2022-08-26T04:30:58;48007.69;;;-142.28;98.41
4149;BME280;2088;51.032;7.082;2022-08-26T04:33:25;47967.03;;;-142.28;98.63
4149;BME280;2088;51.032;7.082;2022-08-26T04:35:58;47978.66;;;-142.28;98.32
4149;BME280;2088;51.032;7.082;2022-08-26T04:38:25;47955.44;;;-142.28;98.00
4149;BME280;2088;51.032;7.082;2022-08-26T04:40:51;47984.47;;;-142.28;97.64
4149;BME280;2088;51.032;7.082;2022-08-26T04:43:18;47968.97;;;-142.28;97.99
4149;BME280;2088;51.032;7.082;2022-08-26T04:45:45;47970.91;;;-142.28;97.52
4149;BME280;2088;51.032;7.082;2022-08-26T04:48:12;47978.66;;;-142.28;97.92
4149;BME280;2088;51.032;7.082;2022-08-26T04:50:39;47980.59;;;-142.28;98.08
4149;BME280;2088;51.032;7.082;2022-08-26T04:53:06;47986.41;;;-142.28;97.95
4149;BME280;2088;51.032;7.082;2022-08-26T04:55:32;47986.41;;;-142.28;97.89
4149;BME280;2088;51.032;7.082;2022-08-26T04:57:59;47970.91;;;-142.28;98.02
4149;BME280;2088;51.032;7.082;2022-08-26T05:00:25;47974.78;;;-142.28;97.83
4149;BME280;2088;51.032;7.082;2022-08-26T05:02:53;47990.25;;;-142.28;97.87
4149;BME280;2088;51.032;7.082;2022-08-26T05:05:19;48003.81;;;-142.28;98.16
4149;BME280;2088;51.032;7.082;2022-08-26T05:07:46;47982.53;;;-142.28;97.69
4149;BME280;2088;51.032;7.082;2022-08-26T05:10:12;47982.53;;;-142.28;98.48
4149;BME280;2088;51.032;7.082;2022-08-26T05:12:39;47986.41;;;-142.28;97.82
4149;BME280;2088;51.032;7.082;2022-08-26T05:15:06;47990.25;;;-142.28;97.53
4149;BME280;2088;51.032;7.082;2022-08-26T05:17:34;47990.25;;;-142.28;97.76
4149;BME280;2088;51.032;7.082;2022-08-26T05:20:03;47980.59;;;-142.28;97.31
4149;BME280;2088;51.032;7.082;2022-08-26T05:22:29;48005.75;;;-142.28;97.50
4149;BME280;2088;51.032;7.082;2022-08-26T05:24:56;47999.94;;;-142.28;97.29
4149;BME280;2088;51.032;7.082;2022-08-26T05:27:22;47988.31;;;-142.28;97.13
4149;BME280;2088;51.032;7.082;2022-08-26T05:29:49;47992.19;;;-142.28;96.85
4149;BME280;2088;51.032;7.082;2022-08-26T05:32:15;47970.91;;;-142.28;96.40
4149;BME280;2088;51.032;7.082;2022-08-26T05:34:42;47986.41;;;-142.28;96.58
4149;BME280;2088;51.032;7.082;2022-08-26T05:37:10;47984.47;;;-142.28;96.35
4149;BME280;2088;51.032;7.082;2022-08-26T05:39:36;47988.31;;;-142.28;96.40
4149;BME280;2088;51.032;7.082;2022-08-26T05:42:03;47972.84;;;-142.28;96.90
4149;BME280;2088;51.032;7.082;2022-08-26T05:44:30;47990.25;;;-142.28;97.09
4149;BME280;2088;51.032;7.082;2022-08-26T05:46:56;47992.19;;;-142.28;96.79
4149;BME280;2088;51.032;7.082;2022-08-26T05:49:22;47965.09;;;-142.28;95.83
4149;BME280;2088;51.032;7.082;2022-08-26T05:51:49;47982.53;;;-142.28;95.81
4149;BME280;2088;51.032;7.082;2022-08-26T05:54:17;47978.66;;;-142.28;95.15
4149;BME280;2088;51.032;7.082;2022-08-26T05:56:43;47990.25;;;-142.28;94.70
4149;BME280;2088;51.032;7.082;2022-08-26T05:59:12;47976.72;;;-142.28;95.28
4149;BME280;2088;51.032;7.082;2022-08-26T06:01:40;47978.66;;;-142.28;95.12
4149;BME280;2088;51.032;7.082;2022-08-26T06:04:07;47986.41;;;-142.28;95.46
4149;BME280;2088;51.032;7.082;2022-08-26T06:06:35;47982.53;;;-142.28;94.33
4149;BME280;2088;51.032;7.082;2022-08-26T06:09:06;47980.59;;;-142.28;94.10
4149;BME280;2088;51.032;7.082;2022-08-26T06:11:36;47990.25;;;-142.28;93.79
4149;BME280;2088;51.032;7.082;2022-08-26T06:14:04;47976.72;;;-142.28;92.81
4149;BME280;2088;51.032;7.082;2022-08-26T06:16:33;47998.00;;;-142.28;93.11
4149;BME280;2088;51.032;7.082;2022-08-26T06:19:01;47972.84;;;-142.28;93.09
4149;BME280;2088;51.032;7.082;2022-08-26T06:21:30;47957.38;;;-142.28;92.66
4149;BME280;2088;51.032;7.082;2022-08-26T06:23:58;47951.56;;;-142.28;92.46
4149;BME280;2088;51.032;7.082;2022-08-26T06:26:48;47972.84;;;-142.28;92.22
4149;BME280;2088;51.032;7.082;2022-08-26T06:29:16;47965.09;;;-142.28;91.54
4149;BME280;2088;51.032;7.082;2022-08-26T06:31:42;47945.75;;;-142.28;91.09
4149;BME280;2088;51.032;7.082;2022-08-26T06:34:09;47968.97;;;-142.28;91.20
4149;BME280;2088;51.032;7.082;2022-08-26T06:36:35;47959.31;;;-142.28;90.35
4149;BME280;2088;51.032;7.082;2022-08-26T06:39:05;47955.44;;;-142.28;90.05
4149;BME280;2088;51.032;7.082;2022-08-26T06:41:33;47959.31;;;-142.28;90.45
4149;BME280;2088;51.032;7.082;2022-08-26T06:44:03;47963.16;;;-142.28;90.11
4149;BME280;2088;51.032;7.082;2022-08-26T06:46:30;47939.94;;;-142.28;90.25
4149;BME280;2088;51.032;7.082;2022-08-26T06:48:57;47938.00;;;-142.28;89.37
4149;BME280;2088;51.032;7.082;2022-08-26T06:51:25;47945.75;;;-142.28;89.36
4149;BME280;2088;51.032;7.082;2022-08-26T06:53:54;47965.09;;;-142.28;88.43
4149;BME280;2088;51.032;7.082;2022-08-26T06:56:25;47963.16;;;-142.28;88.26
4149;BME280;2088;51.032;7.082;2022-08-26T06:58:52;47961.22;;;-142.28;88.35
4149;BME280;2088;51.032;7.082;2022-08-26T07:01:22;47961.22;;;-142.28;87.48
4149;BME280;2088;51.032;7.082;2022-08-26T07:03:50;47959.31;;;-142.28;87.70
4149;BME280;2088;51.032;7.082;2022-08-26T07:06:18;47928.34;;;-142.28;86.68
4149;BME280;2088;51.032;7.082;2022-08-26T07:08:44;47914.78;;;-142.28;86.50
4149;BME280;2088;51.032;7.082;2022-08-26T07:11:11;47936.09;;;-142.28;86.26
4149;BME280;2088;51.032;7.082;2022-08-26T07:13:37;47932.22;;;-142.28;86.38
4149;BME280;2088;51.032;7.082;2022-08-26T07:16:04;47939.94;;;-142.28;85.64
4149;BME280;2088;51.032;7.082;2022-08-26T07:18:33;47939.94;;;-142.28;85.43
4149;BME280;2088;51.032;7.082;2022-08-26T07:21:00;47910.94;;;-142.28;84.40
4149;BME280;2088;51.032;7.082;2022-08-26T07:23:27;47941.88;;;-142.28;85.26
4149;BME280;2088;51.032;7.082;2022-08-26T07:25:54;47938.00;;;-142.28;85.50
4149;BME280;2088;51.032;7.082;2022-08-26T07:28:20;47918.66;;;-142.28;84.35
4149;BME280;2088;51.032;7.082;2022-08-26T07:30:47;47936.09;;;-142.28;84.96
4149;BME280;2088;51.032;7.082;2022-08-26T07:33:13;47928.34;;;-142.28;85.37
4149;BME280;2088;51.032;7.082;2022-08-26T07:35:43;47909.00;;;-142.28;85.62
4149;BME280;2088;51.032;7.082;2022-08-26T07:38:10;47934.16;;;-142.28;85.88
4149;BME280;2088;51.032;7.082;2022-08-26T07:40:37;47951.56;;;-142.28;85.53
4149;BME280;2088;51.032;7.082;2022-08-26T07:43:03;47943.81;;;-142.28;85.14
4149;BME280;2088;51.032;7.082;2022-08-26T07:45:30;47943.81;;;-142.28;85.35
4149;BME280;2088;51.032;7.082;2022-08-26T07:47:56;47922.53;;;-142.28;83.90
4149;BME280;2088;51.032;7.082;2022-08-26T07:50:23;47924.47;;;-142.28;83.54
4149;BME280;2088;51.032;7.082;2022-08-26T07:52:51;47909.00;;;-142.28;83.67
4149;BME280;2088;51.032;7.082;2022-08-26T07:55:18;47916.72;;;-142.28;82.81
4149;BME280;2088;51.032;7.082;2022-08-26T07:57:47;47912.84;;;-142.28;83.40
4149;BME280;2088;51.032;7.082;2022-08-26T08:00:15;47920.59;;;-142.28;83.52
4149;BME280;2088;51.032;7.082;2022-08-26T08:02:42;47918.66;;;-142.28;84.38
4149;BME280;2088;51.032;7.082;2022-08-26T08:05:10;47909.00;;;-142.28;84.79
4149;BME280;2088;51.032;7.082;2022-08-26T08:07:37;47932.22;;;-142.28;84.36
4149;BME280;2088;51.032;7.082;2022-08-26T08:10:06;47945.75;;;-142.28;83.88
4149;BME280;2088;51.032;7.082;2022-08-26T08:12:33;47920.59;;;-142.28;83.53
4149;BME280;2088;51.032;7.082;2022-08-26T08:14:59;47936.09;;;-142.28;83.28
4149;BME280;2088;51.032;7.082;2022-08-26T08:17:26;47945.75;;;-142.28;83.81
4149;BME280;2088;51.032;7.082;2022-08-26T08:19:52;47928.34;;;-142.28;83.73
4149;BME280;2088;51.032;7.082;2022-08-26T08:22:19;47914.78;;;-142.28;83.22
4149;BME280;2088;51.032;7.082;2022-08-26T08:24:47;47939.94;;;-142.28;82.59
4149;BME280;2088;51.032;7.082;2022-08-26T08:27:15;47928.34;;;-142.28;82.96
4149;BME280;2088;51.032;7.082;2022-08-26T08:29:42;47936.09;;;-142.28;82.57
4149;BME280;2088;51.032;7.082;2022-08-26T08:32:10;47943.81;;;-142.28;83.79
4149;BME280;2088;51.032;7.082;2022-08-26T08:34:37;47920.59;;;-142.28;84.17
4149;BME280;2088;51.032;7.082;2022-08-26T08:37:04;47932.22;;;-142.28;84.00
4149;BME280;2088;51.032;7.082;2022-08-26T08:39:31;47926.41;;;-142.28;84.56
4149;BME280;2088;51.032;7.082;2022-08-26T08:42:14;47939.94;;;-142.28;84.55
4149;BME280;2088;51.032;7.082;2022-08-26T08:44:48;47932.22;;;-142.28;85.11
4149;BME280;2088;51.032;7.082;2022-08-26T08:47:18;47928.34;;;-142.28;84.64
4149;BME280;2088;51.032;7.082;2022-08-26T08:49:48;47934.16;;;-142.28;85.14
4149;BME280;2088;51.032;7.082;2022-08-26T08:52:23;47924.47;;;-142.28;84.79
4149;BME280;2088;51.032;7.082;2022-08-26T08:54:52;47924.47;;;-142.28;84.64
4149;BME280;2088;51.032;7.082;2022-08-26T08:57:25;47939.94;;;-142.28;84.57
4149;BME280;2088;51.032;7.082;2022-08-26T09:00:02;47947.69;;;-142.28;84.31
4149;BME280;2088;51.032;7.082;2022-08-26T09:02:34;47939.94;;;-142.28;84.33
4149;BME280;2088;51.032;7.082;2022-08-26T09:05:08;47943.81;;;-142.28;84.70
4149;BME280;2088;51.032;7.082;2022-08-26T09:07:37;47934.16;;;-142.28;84.85
4149;BME280;2088;51.032;7.082;2022-08-26T09:10:17;47941.88;;;-142.28;84.10
4149;BME280;2088;51.032;7.082;2022-08-26T09:12:49;47932.22;;;-142.28;84.06
4149;BME280;2088;51.032;7.082;2022-08-26T09:15:19;47943.81;;;-142.28;84.24
4149;BME280;2088;51.032;7.082;2022-08-26T09:17:53;47939.94;;;-142.28;83.68
4149;BME280;2088;51.032;7.082;2022-08-26T09:20:34;47951.56;;;-142.28;82.98
4149;BME280;2088;51.032;7.082;2022-08-26T09:23:03;47924.47;;;-142.28;82.93
4149;BME280;2088;51.032;7.082;2022-08-26T09:25:29;47934.16;;;-142.28;82.03
4149;BME280;2088;51.032;7.082;2022-08-26T09:27:56;47928.34;;;-142.28;82.07
4149;BME280;2088;51.032;7.082;2022-08-26T09:30:28;47926.41;;;-142.28;81.77
4149;BME280;2088;51.032;7.082;2022-08-26T09:33:00;47914.78;;;-142.28;81.12
4149;BME280;2088;51.032;7.082;2022-08-26T09:35:29;47924.47;;;-142.28;80.10
4149;BME280;2088;51.032;7.082;2022-08-26T09:37:57;47920.59;;;-142.28;80.62
4149;BME280;2088;51.032;7.082;2022-08-26T09:40:29;47936.09;;;-142.28;80.80
4149;BME280;2088;51.032;7.082;2022-08-26T09:43:12;47928.34;;;-142.28;80.47
4149;BME280;2088;51.032;7.082;2022-08-26T09:45:42;47936.09;;;-142.28;81.05
4149;BME280;2088;51.032;7.082;2022-08-26T09:48:10;47930.28;;;-142.28;80.98
4149;BME280;2088;51.032;7.082;2022-08-26T09:50:39;47953.50;;;-142.28;80.65
4149;BME280;2088;51.032;7.082;2022-08-26T09:53:19;47957.38;;;-142.28;80.66
4149;BME280;2088;51.032;7.082;2022-08-26T09:55:47;47939.94;;;-142.28;80.06
4149;BME280;2088;51.032;7.082;2022-08-26T09:58:30;47909.00;;;-142.28;78.43
4149;BME280;2088;51.032;7.082;2022-08-26T10:01:00;47934.16;;;-142.28;78.89
4149;BME280;2088;51.032;7.082;2022-08-26T10:03:29;47928.34;;;-142.28;78.67
4149;BME280;2088;51.032;7.082;2022-08-26T10:05:59;47926.41;;;-142.28;77.94
4149;BME280;2088;51.032;7.082;2022-08-26T10:08:29;47938.00;;;-142.28;77.51
4149;BME280;2088;51.032;7.082;2022-08-26T10:10:59;47916.72;;;-142.28;77.40
4149;BME280;2088;51.032;7.082;2022-08-26T10:13:31;47901.25;;;-142.28;78.30
4149;BME280;2088;51.032;7.082;2022-08-26T10:16:05;47941.88;;;-142.28;78.62
4149;BME280;2088;51.032;7.082;2022-08-26T10:18:36;47932.22;;;-142.28;78.82
4149;BME280;2088;51.032;7.082;2022-08-26T10:21:07;47939.94;;;-142.28;78.35
4149;BME280;2088;51.032;7.082;2022-08-26T10:23:39;47910.94;;;-142.28;77.96
4149;BME280;2088;51.032;7.082;2022-08-26T10:26:11;47955.44;;;-142.28;77.51
4149;BME280;2088;51.032;7.082;2022-08-26T10:28:42;47928.34;;;-142.28;78.04
4149;BME280;2088;51.032;7.082;2022-08-26T10:31:24;47930.28;;;-142.28;78.09
4149;BME280;2088;51.032;7.082;2022-08-26T10:33:53;47932.22;;;-142.28;78.46
4149;BME280;2088;51.032;7.082;2022-08-26T10:36:22;47945.75;;;-142.28;78.17
4149;BME280;2088;51.032;7.082;2022-08-26T10:39:07;47936.09;;;-142.28;78.55
4149;BME280;2088;51.032;7.082;2022-08-26T10:41:38;47928.34;;;-142.28;78.55
4149;BME280;2088;51.032;7.082;2022-08-26T10:44:07;47922.53;;;-142.28;79.14
4149;BME280;2088;51.032;7.082;2022-08-26T10:46:43;47943.81;;;-142.28;79.38
4149;BME280;2088;51.032;7.082;2022-08-26T10:49:12;47924.47;;;-142.28;79.66
4149;BME280;2088;51.032;7.082;2022-08-26T10:51:43;47928.34;;;-142.28;80.03
4149;BME280;2088;51.032;7.082;2022-08-26T10:54:18;47916.72;;;-142.28;79.84
4149;BME280;2088;51.032;7.082;2022-08-26T10:56:48;47928.34;;;-142.28;79.49
4149;BME280;2088;51.032;7.082;2022-08-26T10:59:25;47941.88;;;-142.28;79.40
4149;BME280;2088;51.032;7.082;2022-08-26T11:01:59;47920.59;;;-142.28;79.31
4149;BME280;2088;51.032;7.082;2022-08-26T11:04:43;47924.47;;;-142.28;78.03
4149;BME280;2088;51.032;7.082;2022-08-26T11:07:34;47963.16;;;-142.28;77.65
4149;BME280;2088;51.032;7.082;2022-08-26T11:10:05;47928.34;;;-142.28;77.88
4149;BME280;2088;51.032;7.082;2022-08-26T11:12:51;47912.84;;;-142.28;77.13
4149;BME280;2088;51.032;7.082;2022-08-26T11:21:59;47926.41;;;-142.28;77.51
4149;BME280;2088;51.032;7.082;2022-08-26T11:24:44;47932.22;;;-142.28;76.31
4149;BME280;2088;51.032;7.082;2022-08-26T11:30:44;47909.00;;;-142.28;75.03
4149;BME280;2088;51.032;7.082;2022-08-26T11:36:50;47912.84;;;-142.28;71.67
4149;BME280;2088;51.032;7.082;2022-08-26T11:39:22;47909.00;;;-142.28;70.74
4149;BME280;2088;51.032;7.082;2022-08-26T11:41:55;47920.59;;;-142.28;70.45
4149;BME280;2088;51.032;7.082;2022-08-26T11:44:25;47920.59;;;-142.28;70.48
4149;BME280;2088;51.032;7.082;2022-08-26T11:46:55;47897.38;;;-142.28;70.77
4149;BME280;2088;51.032;7.082;2022-08-26T11:49:22;47909.00;;;-142.28;72.29
4149;BME280;2088;51.032;7.082;2022-08-26T11:51:51;47936.09;;;-142.28;70.98
4149;BME280;2088;51.032;7.082;2022-08-26T11:54:20;47930.28;;;-142.28;71.08
4149;BME280;2088;51.032;7.082;2022-08-26T11:56:49;47924.47;;;-142.28;71.13
4149;BME280;2088;51.032;7.082;2022-08-26T11:59:22;47914.78;;;-142.28;71.04
4149;BME280;2088;51.032;7.082;2022-08-26T12:01:51;47912.84;;;-142.28;71.43
4149;BME280;2088;51.032;7.082;2022-08-26T12:04:26;47901.25;;;-142.28;69.73
4149;BME280;2088;51.032;7.082;2022-08-26T12:06:56;47893.50;;;-142.28;69.58
4149;BME280;2088;51.032;7.082;2022-08-26T12:09:26;47893.50;;;-142.28;68.86
4149;BME280;2088;51.032;7.082;2022-08-26T12:12:08;47907.06;;;-142.28;68.26
4149;BME280;2088;51.032;7.082;2022-08-26T12:14:35;47918.66;;;-142.28;68.56
4149;BME280;2088;51.032;7.082;2022-08-26T12:17:08;47920.59;;;-142.28;68.20
4149;BME280;2088;51.032;7.082;2022-08-26T12:19:35;47932.22;;;-142.28;68.24
4149;BME280;2088;51.032;7.082;2022-08-26T12:22:06;47924.47;;;-142.28;69.38
4149;BME280;2088;51.032;7.082;2022-08-26T12:24:33;47920.59;;;-142.28;68.66
4149;BME280;2088;51.032;7.082;2022-08-26T12:27:12;47905.13;;;-142.28;68.27
4149;BME280;2088;51.032;7.082;2022-08-26T12:29:40;47924.47;;;-142.28;68.49
4149;BME280;2088;51.032;7.082;2022-08-26T12:32:08;47910.94;;;-142.28;68.61
4149;BME280;2088;51.032;7.082;2022-08-26T12:34:35;47916.72;;;-142.28;67.75
4149;BME280;2088;51.032;7.082;2022-08-26T12:37:03;47912.84;;;-142.28;67.37
4149;BME280;2088;51.032;7.082;2022-08-26T12:39:31;47926.41;;;-142.28;66.38
4149;BME280;2088;51.032;7.082;2022-08-26T12:42:01;47918.66;;;-142.28;67.17
4149;BME280;2088;51.032;7.082;2022-08-26T12:44:34;47910.94;;;-142.28;67.81
4149;BME280;2088;51.032;7.082;2022-08-26T12:47:11;47918.66;;;-142.28;70.22
4149;BME280;2088;51.032;7.082;2022-08-26T12:49:42;47924.47;;;-142.28;70.32
4149;BME280;2088;51.032;7.082;2022-08-26T12:52:22;47924.47;;;-142.28;70.05
4149;BME280;2088;51.032;7.082;2022-08-26T12:54:56;47934.16;;;-142.28;68.44
4149;BME280;2088;51.032;7.082;2022-08-26T12:57:29;47963.16;;;-142.28;70.32
4149;BME280;2088;51.032;7.082;2022-08-26T13:00:28;47901.25;;;-142.28;69.75
4149;BME280;2088;51.032;7.082;2022-08-26T13:02:54;47912.84;;;-142.28;70.01
4149;BME280;2088;51.032;7.082;2022-08-26T13:05:22;47924.47;;;-142.28;70.01
4149;BME280;2088;51.032;7.082;2022-08-26T13:08:11;47912.84;;;-142.28;70.25
4149;BME280;2088;51.032;7.082;2022-08-26T13:10:41;47905.13;;;-142.28;70.38
4149;BME280;2088;51.032;7.082;2022-08-26T13:13:08;47920.59;;;-142.28;71.03
4149;BME280;2088;51.032;7.082;2022-08-26T13:15:35;47941.88;;;-142.28;71.22
4149;BME280;2088;51.032;7.082;2022-08-26T13:18:02;47930.28;;;-142.28;71.49
4149;BME280;2088;51.032;7.082;2022-08-26T13:20:28;47928.34;;;-142.28;71.13
4149;BME280;2088;51.032;7.082;2022-08-26T13:22:56;47926.41;;;-142.28;72.19
4149;BME280;2088;51.032;7.082;2022-08-26T13:25:24;47903.19;;;-142.28;71.72